Time;durP1;ratioP1;P1;durP2;ratioP2;P2;SDS_P1;SDS_P2;PMS_P1;PMS_P2;Temp;Humidity;BMP_temperature;BMP_pressure;BME280_temperature;BME280_humidity;BME280_pressure;Samples;Min_cycle;Max_cycle;Signal;HPM_P1;HPM_P2
2022/06/16 00:01:25;;;;;;;5.53;2.30;;;13.70;99.90;;;;;;4984445;28;20041;-35
2022/06/16 00:03:51;;;;;;;4.60;2.35;;;13.60;99.90;;;;;;5003641;28;20047;-35
2022/06/16 00:06:17;;;;;;;4.65;2.10;;;13.60;99.90;;;;;;5017894;28;20045;-36
2022/06/16 00:08:43;;;;;;;4.38;2.40;;;13.60;99.90;;;;;;5013267;28;20413;-35
2022/06/16 00:11:17;;;;;;;4.75;2.03;;;13.60;99.90;;;;;;4991571;28;20420;-35
2022/06/16 00:13:44;;;;;;;6.43;2.45;;;13.50;99.90;;;;;;5008419;28;20046;-35
2022/06/16 00:16:10;;;;;;;5.72;2.47;;;13.50;99.90;;;;;;4996277;28;20467;-35
2022/06/16 00:18:37;;;;;;;3.42;2.15;;;13.50;99.90;;;;;;5020396;28;20137;-35
2022/06/16 00:21:03;;;;;;;5.53;2.30;;;13.50;99.90;;;;;;5020594;28;20444;-35
2022/06/16 00:23:29;;;;;;;4.28;2.33;;;13.40;99.90;;;;;;5008017;28;20049;-35
2022/06/16 00:25:55;;;;;;;4.20;2.38;;;13.40;99.90;;;;;;4997681;28;20045;-35
2022/06/16 00:28:20;;;;;;;5.43;2.28;;;13.30;99.90;;;;;;4993961;28;20129;-35
2022/06/16 00:30:46;;;;;;;5.20;2.03;;;13.40;99.90;;;;;;5012757;28;20077;-35
2022/06/16 00:33:12;;;;;;;5.85;2.13;;;13.40;99.90;;;;;;5011891;28;20053;-35
2022/06/16 00:35:38;;;;;;;4.07;2.08;;;13.40;99.90;;;;;;4994948;28;20503;-35
2022/06/16 00:38:03;;;;;;;4.70;2.45;;;13.30;99.90;;;;;;4997031;28;20130;-35
2022/06/16 00:40:29;;;;;;;4.60;1.70;;;13.30;99.90;;;;;;5018630;28;20661;-35
2022/06/16 00:42:55;;;;;;;3.60;2.03;;;13.40;99.90;;;;;;4993980;28;20480;-35
2022/06/16 00:45:42;;;;;;;3.42;2.00;;;13.20;99.90;;;;;;5012296;28;20050;-35
2022/06/16 00:48:10;;;;;;;4.45;2.10;;;13.30;99.90;;;;;;4996135;28;20129;-35
2022/06/16 00:50:36;;;;;;;5.75;2.33;;;13.30;99.90;;;;;;4994941;28;20448;-35
2022/06/16 00:53:02;;;;;;;4.63;2.42;;;13.30;99.90;;;;;;5010857;28;20046;-35
2022/06/16 00:55:28;;;;;;;3.13;2.17;;;13.30;99.90;;;;;;5012116;28;20057;-35
2022/06/16 00:57:54;;;;;;;6.07;2.20;;;13.30;99.90;;;;;;4995133;28;20457;-35
2022/06/16 01:03:07;;;;;;;6.65;2.10;;;13.20;99.90;;;;;;5000354;28;20132;-35
2022/06/16 01:05:34;;;;;;;4.88;2.00;;;13.20;99.90;;;;;;5002574;28;20467;-34
2022/06/16 01:08:01;;;;;;;3.20;2.05;;;13.20;99.90;;;;;;5010608;28;20046;-35
2022/06/16 01:10:37;;;;;;;4.20;2.20;;;13.20;99.90;;;;;;5012026;28;20042;-35
2022/06/16 01:16:22;;;;;;;4.90;2.30;;;13.20;99.90;;;;;;4983319;28;20366;-35
2022/06/16 01:19:34;;;;;;;5.93;2.30;;;13.20;99.90;;;;;;5007680;28;20050;-35
2022/06/16 01:22:31;;;;;;;4.35;1.92;;;13.20;99.90;;;;;;5011969;28;20045;-35
2022/06/16 01:25:15;;;;;;;4.60;2.17;;;13.20;99.90;;;;;;5011017;28;20140;-35
2022/06/16 01:27:47;;;;;;;4.03;1.90;;;13.10;99.90;;;;;;4995267;28;20607;-35
2022/06/16 01:30:16;;;;;;;3.80;2.00;;;13.10;99.90;;;;;;5011506;28;20164;-35
2022/06/16 01:32:58;;;;;;;6.32;2.08;;;13.10;99.90;;;;;;5010528;28;20065;-37
2022/06/16 01:35:30;;;;;;;6.55;2.40;;;13.10;99.90;;;;;;5015605;28;20061;-35
2022/06/16 01:38:04;;;;;;;6.78;2.35;;;13.10;99.90;;;;;;4968987;28;20053;-35
2022/06/16 01:40:47;;;;;;;5.78;2.88;;;13.10;99.90;;;;;;5010651;28;20053;-35
2022/06/16 01:43:22;;;;;;;5.15;2.72;;;13.10;99.90;;;;;;4992791;28;20161;-35
2022/06/16 01:46:06;;;;;;;4.80;2.58;;;13.10;99.90;;;;;;5021100;28;20489;-35
2022/06/16 01:48:34;;;;;;;4.70;2.45;;;13.10;99.90;;;;;;5016002;28;20558;-35
2022/06/16 01:51:07;;;;;;;4.68;2.15;;;13.10;99.90;;;;;;5030927;28;20121;-35
2022/06/16 01:54:00;;;;;;;2.97;2.33;;;13.10;99.90;;;;;;5029997;28;20127;-35
2022/06/16 01:56:42;;;;;;;4.63;2.45;;;13.00;99.90;;;;;;4991889;28;20050;-35
2022/06/16 01:59:21;;;;;;;4.93;2.50;;;13.10;99.90;;;;;;5010000;28;20057;-35
2022/06/16 02:01:50;;;;;;;8.57;3.13;;;13.10;99.90;;;;;;5013501;28;20045;-35
2022/06/16 02:04:23;;;;;;;3.80;2.60;;;13.10;99.90;;;;;;5021518;28;20045;-35
2022/06/16 02:06:54;;;;;;;4.63;2.28;;;13.00;99.90;;;;;;4995880;28;20050;-35
2022/06/16 02:09:27;;;;;;;4.63;2.28;;;13.00;99.90;;;;;;5011719;28;20370;-35
2022/06/16 02:11:58;;;;;;;4.53;2.17;;;13.10;99.90;;;;;;5010878;28;20050;-35
2022/06/16 02:14:37;;;;;;;4.50;2.20;;;13.00;99.90;;;;;;5007802;28;20558;-35
2022/06/16 02:17:04;;;;;;;5.18;2.33;;;13.10;99.90;;;;;;4999855;28;20933;-39
2022/06/16 02:19:31;;;;;;;4.05;2.40;;;13.10;99.90;;;;;;5030451;28;20037;-34
2022/06/16 02:21:57;;;;;;;5.05;2.38;;;13.10;99.90;;;;;;5017527;28;20048;-35
2022/06/16 02:24:26;;;;;;;4.65;2.38;;;13.10;99.90;;;;;;4991646;28;20501;-35
2022/06/16 02:26:57;;;;;;;5.78;2.38;;;13.10;99.90;;;;;;4994785;28;20053;-35
2022/06/16 02:29:34;;;;;;;4.27;2.77;;;13.00;99.90;;;;;;5009458;28;20405;-35
2022/06/16 02:32:31;;;;;;;3.67;2.38;;;13.00;99.90;;;;;;5010525;28;20057;-35
2022/06/16 02:35:08;;;;;;;3.60;2.40;;;13.00;99.90;;;;;;5011996;28;20072;-35
2022/06/16 02:38:07;;;;;;;4.78;2.75;;;13.00;99.90;;;;;;4976102;28;20054;-35
2022/06/16 02:40:58;;;;;;;3.88;2.20;;;12.90;99.90;;;;;;5022368;28;20041;-35
2022/06/16 02:43:47;;;;;;;3.30;2.70;;;12.90;99.90;;;;;;5009461;28;20046;-35
2022/06/16 02:47:00;;;;;;;5.00;2.00;;;12.70;99.90;;;;;;5001145;28;20045;-35
2022/06/16 02:49:38;;;;;;;4.25;2.25;;;12.80;99.90;;;;;;4948835;28;20133;-35
2022/06/16 02:52:23;;;;;;;4.00;2.17;;;12.70;99.90;;;;;;5008734;28;20056;-35
2022/06/16 02:55:16;;;;;;;4.00;2.40;;;12.60;99.90;;;;;;5009815;28;20440;-35
2022/06/16 02:57:52;;;;;;;5.50;2.17;;;12.50;99.90;;;;;;4975964;28;20132;-35
2022/06/16 03:00:22;;;;;;;5.43;2.50;;;12.50;99.90;;;;;;5002496;28;20109;-35
2022/06/16 03:02:48;;;;;;;5.15;2.50;;;12.50;99.90;;;;;;5009559;28;20046;-35
2022/06/16 03:05:15;;;;;;;6.40;2.88;;;12.50;99.90;;;;;;5021192;28;20053;-35
2022/06/16 03:07:42;;;;;;;4.65;2.30;;;12.50;99.90;;;;;;5011320;28;20045;-35
2022/06/16 03:10:11;;;;;;;3.85;2.15;;;12.40;99.90;;;;;;5009783;28;20056;-35
2022/06/16 03:12:36;;;;;;;4.75;2.58;;;12.40;99.90;;;;;;5011772;28;20552;-35
2022/06/16 03:15:02;;;;;;;6.45;2.72;;;12.30;99.90;;;;;;5004812;28;20156;-35
2022/06/16 03:17:29;;;;;;;7.38;2.83;;;12.40;99.90;;;;;;4993374;28;20046;-35
2022/06/16 03:19:55;;;;;;;5.20;2.20;;;12.40;99.90;;;;;;5009954;28;20049;-34
2022/06/16 03:22:20;;;;;;;4.70;2.50;;;12.40;99.90;;;;;;4991255;28;20108;-35
2022/06/16 03:24:46;;;;;;;5.80;2.50;;;12.50;99.90;;;;;;4992391;28;20563;-34
2022/06/16 03:27:12;;;;;;;5.80;2.90;;;12.50;99.90;;;;;;4995172;28;20161;-34
2022/06/16 03:29:38;;;;;;;5.47;3.05;;;12.50;99.90;;;;;;5009272;28;20054;-35
2022/06/16 03:32:04;;;;;;;4.68;2.55;;;12.40;99.90;;;;;;5009857;28;20462;-35
2022/06/16 03:34:30;;;;;;;4.93;2.40;;;12.50;99.90;;;;;;5008494;28;20042;-35
2022/06/16 03:36:56;;;;;;;4.13;2.70;;;12.50;99.90;;;;;;4998168;28;20385;-35
2022/06/16 03:39:23;;;;;;;4.10;2.33;;;12.50;99.90;;;;;;5028931;28;20103;-35
2022/06/16 03:41:49;;;;;;;5.95;2.47;;;12.50;99.90;;;;;;5000767;28;20053;-35
2022/06/16 03:44:14;;;;;;;5.90;2.33;;;12.50;99.90;;;;;;5019700;28;20050;-35
2022/06/16 03:46:40;;;;;;;5.47;2.35;;;12.50;99.90;;;;;;4980294;28;20049;-35
2022/06/16 03:49:06;;;;;;;3.65;2.35;;;12.50;99.90;;;;;;5007341;28;20111;-35
2022/06/16 03:51:32;;;;;;;5.93;2.60;;;12.60;99.90;;;;;;5009417;28;20070;-35
2022/06/16 03:53:58;;;;;;;5.75;2.30;;;12.60;99.90;;;;;;5008909;28;20057;-35
2022/06/16 03:56:24;;;;;;;3.63;1.95;;;12.60;99.90;;;;;;4996747;28;20050;-35
2022/06/16 03:58:55;;;;;;;5.28;1.98;;;12.60;99.90;;;;;;5005456;28;20045;-34
2022/06/16 04:01:21;;;;;;;4.63;2.05;;;12.60;99.90;;;;;;4989538;28;20045;-34
2022/06/16 04:04:01;;;;;;;6.55;2.20;;;12.60;99.90;;;;;;4993555;28;20042;-34
2022/06/16 04:06:33;;;;;;;6.85;2.17;;;12.60;99.90;;;;;;4977809;28;20056;-35
2022/06/16 04:08:58;;;;;;;;;;;12.60;99.90;;;;;;5015771;28;20046;-34
2022/06/16 04:11:27;;;;;;;6.57;1.80;;;12.50;99.90;;;;;;5018970;28;20546;-34
2022/06/16 04:14:08;;;;;;;3.20;1.90;;;12.60;99.90;;;;;;5003715;28;20046;-34
2022/06/16 04:16:37;;;;;;;3.85;2.22;;;12.70;99.90;;;;;;4997216;28;20052;-35
2022/06/16 04:19:04;;;;;;;4.72;2.00;;;12.70;99.90;;;;;;4996246;28;20057;-34
2022/06/16 04:21:30;;;;;;;3.97;2.35;;;12.70;99.90;;;;;;5012953;28;20072;-34
2022/06/16 04:23:56;;;;;;;6.20;2.47;;;12.80;99.90;;;;;;5011720;28;20525;-34
2022/06/16 04:26:22;;;;;;;4.70;1.80;;;12.80;99.90;;;;;;5000406;28;20127;-34
2022/06/16 04:28:48;;;;;;;6.68;2.20;;;12.80;99.90;;;;;;5012150;28;20504;-34
2022/06/16 04:31:14;;;;;;;5.15;2.60;;;12.90;99.90;;;;;;5014289;28;20115;-34
2022/06/16 04:33:41;;;;;;;6.45;2.40;;;12.90;99.90;;;;;;5030110;28;20045;-35
2022/06/16 04:36:07;;;;;;;4.45;2.85;;;13.00;99.90;;;;;;5019438;28;20076;-35
2022/06/16 04:38:33;;;;;;;6.28;2.42;;;13.10;99.90;;;;;;5004799;28;20042;-34
2022/06/16 04:40:59;;;;;;;5.72;2.58;;;13.10;99.90;;;;;;5012680;28;20091;-34
2022/06/16 04:43:26;;;;;;;7.95;2.85;;;13.20;99.90;;;;;;4993657;28;20088;-34
2022/06/16 04:45:52;;;;;;;5.75;2.88;;;13.30;99.90;;;;;;4994943;28;20054;-34
2022/06/16 04:48:17;;;;;;;6.22;3.10;;;13.40;99.90;;;;;;4996152;28;20056;-35
2022/06/16 04:50:43;;;;;;;6.00;2.72;;;13.50;99.90;;;;;;5012464;28;20053;-35
2022/06/16 04:53:09;;;;;;;6.68;2.67;;;13.50;99.90;;;;;;5028810;28;20622;-34
2022/06/16 04:55:35;;;;;;;6.90;2.50;;;13.60;99.90;;;;;;5014261;28;20046;-35
2022/06/16 04:58:05;;;;;;;7.93;2.42;;;13.70;99.90;;;;;;5014738;28;20056;-35
2022/06/16 05:00:31;;;;;;;5.10;2.80;;;13.80;99.90;;;;;;5003174;28;20698;-34
2022/06/16 05:02:57;;;;;;;4.38;2.40;;;14.00;99.90;;;;;;5011893;28;20151;-34
2022/06/16 05:05:23;;;;;;;6.78;2.28;;;14.10;99.90;;;;;;5014520;28;20038;-34
2022/06/16 05:07:49;;;;;;;12.85;2.40;;;14.20;99.90;;;;;;5011375;28;20092;-35
2022/06/16 05:10:15;;;;;;;7.28;2.85;;;14.30;99.90;;;;;;5012118;28;20053;-35
2022/06/16 05:12:41;;;;;;;6.45;2.95;;;14.50;99.90;;;;;;5010910;28;20046;-35
2022/06/16 05:15:07;;;;;;;6.43;2.28;;;14.60;99.90;;;;;;5003737;28;20718;-35
2022/06/16 05:17:32;;;;;;;4.93;2.10;;;14.70;99.90;;;;;;4992374;28;20049;-35
2022/06/16 05:19:58;;;;;;;6.50;1.67;;;14.80;99.90;;;;;;5011594;28;20042;-35
2022/06/16 05:22:24;;;;;;;3.80;1.52;;;14.90;99.90;;;;;;4993224;28;20044;-35
2022/06/16 05:24:50;;;;;;;6.15;1.63;;;15.00;99.90;;;;;;5011971;28;20085;-35
2022/06/16 05:27:17;;;;;;;5.05;2.05;;;15.00;99.90;;;;;;4995823;28;20046;-35
2022/06/16 05:29:43;;;;;;;4.75;1.67;;;15.10;99.90;;;;;;5011361;28;20136;-35
2022/06/16 05:32:11;;;;;;;5.47;1.85;;;15.20;99.90;;;;;;5010456;28;20494;-35
2022/06/16 05:34:37;;;;;;;6.57;1.80;;;15.20;99.90;;;;;;5011452;28;20048;-35
2022/06/16 05:37:04;;;;;;;5.60;1.30;;;15.30;99.90;;;;;;4994865;28;20050;-35
2022/06/16 05:39:30;;;;;;;3.70;1.75;;;15.30;99.90;;;;;;5022161;28;20042;-35
2022/06/16 05:41:56;;;;;;;8.65;2.70;;;15.40;99.90;;;;;;5012823;28;20111;-35
2022/06/16 05:44:22;;;;;;;8.38;2.55;;;15.50;99.90;;;;;;5021612;28;20065;-35
2022/06/16 05:46:47;;;;;;;4.88;2.30;;;15.60;99.90;;;;;;5015635;28;20049;-35
2022/06/16 05:49:15;;;;;;;4.05;1.80;;;15.70;99.90;;;;;;5029424;28;20049;-35
2022/06/16 05:51:41;;;;;;;6.47;2.13;;;15.90;99.90;;;;;;5021730;28;20441;-35
2022/06/16 05:54:07;;;;;;;6.95;2.90;;;16.00;99.90;;;;;;4995229;28;20053;-35
2022/06/16 05:56:33;;;;;;;5.88;1.98;;;16.10;99.90;;;;;;4994003;28;20042;-35
2022/06/16 05:58:59;;;;;;;5.20;1.52;;;16.10;99.90;;;;;;5004965;28;20049;-35
2022/06/16 06:01:26;;;;;;;7.10;1.50;;;16.20;99.90;;;;;;5009795;28;20045;-35
2022/06/16 06:03:51;;;;;;;3.45;1.80;;;16.30;99.90;;;;;;5005260;28;20093;-35
2022/06/16 06:06:17;;;;;;;5.82;2.30;;;16.40;99.90;;;;;;5018769;28;20563;-35
2022/06/16 06:17:15;;;;;;;4.80;1.20;;;16.90;99.90;;;;;;4985343;28;20952;-36
2022/06/16 06:19:42;;;;;;;5.20;1.55;;;17.00;99.90;;;;;;5018251;28;20049;-35
2022/06/16 06:22:15;;;;;;;3.25;1.00;;;17.10;99.90;;;;;;5014045;28;20041;-36
2022/06/16 06:24:55;;;;;;;2.38;0.60;;;17.20;99.90;;;;;;5010408;28;20054;-35
2022/06/16 06:27:34;;;;;;;3.28;0.52;;;17.40;99.90;;;;;;4996499;28;20509;-40
2022/06/16 06:30:01;;;;;;;2.00;0.55;;;17.50;99.90;;;;;;5006850;28;20111;-36
2022/06/16 06:32:28;;;;;;;3.30;0.70;;;17.60;99.90;;;;;;5001681;28;20041;-36
2022/06/16 06:34:54;;;;;;;3.53;1.00;;;17.60;99.90;;;;;;5008816;28;20088;-36
2022/06/16 06:37:23;;;;;;;2.13;1.10;;;17.70;99.90;;;;;;4993886;28;20117;-36
2022/06/16 06:39:49;;;;;;;7.35;1.20;;;17.80;99.90;;;;;;5013740;28;20068;-36
2022/06/16 06:42:15;;;;;;;3.30;0.95;;;17.90;99.90;;;;;;5018771;28;20033;-36
2022/06/16 06:44:42;;;;;;;3.80;0.90;;;17.90;99.90;;;;;;5018893;28;20437;-36
2022/06/16 06:47:08;;;;;;;4.00;0.85;;;18.00;99.90;;;;;;4989358;28;20049;-36
2022/06/16 06:49:33;;;;;;;3.65;1.05;;;18.00;99.90;;;;;;5022595;28;20041;-36
2022/06/16 06:51:59;;;;;;;2.67;0.68;;;18.00;99.90;;;;;;5013516;28;20440;-36
2022/06/16 06:54:25;;;;;;;1.90;0.70;;;18.10;99.90;;;;;;4995032;28;20041;-36
2022/06/16 06:56:51;;;;;;;1.58;0.55;;;18.20;99.90;;;;;;4997607;28;20042;-36
2022/06/16 06:59:19;;;;;;;3.42;0.70;;;18.20;99.90;;;;;;4999085;28;20652;-36
2022/06/16 07:01:49;;;;;;;2.85;0.40;;;18.30;99.90;;;;;;4990505;28;20054;-36
2022/06/16 07:04:16;;;;;;;2.23;0.60;;;18.20;99.90;;;;;;5007091;28;20056;-36
2022/06/16 07:06:43;;;;;;;3.80;0.95;;;18.30;99.90;;;;;;5006348;28;20675;-36
2022/06/16 07:09:13;;;;;;;2.17;0.52;;;18.40;99.90;;;;;;4997648;28;20054;-36
2022/06/16 07:11:42;;;;;;;2.25;0.75;;;18.40;99.90;;;;;;4991781;28;20659;-36
2022/06/16 07:14:08;;;;;;;4.68;1.00;;;18.40;99.90;;;;;;5008194;28;20081;-36
2022/06/16 07:16:35;;;;;;;4.10;0.57;;;18.40;99.90;;;;;;4983398;28;20398;-36
2022/06/16 07:19:01;;;;;;;2.60;0.70;;;18.50;99.90;;;;;;5006977;28;20505;-37
2022/06/16 07:21:27;;;;;;;1.83;0.50;;;18.50;99.90;;;;;;4967869;28;20050;-36
2022/06/16 07:23:53;;;;;;;4.82;0.95;;;18.50;99.90;;;;;;5007067;28;20136;-36
2022/06/16 07:26:19;;;;;;;1.48;0.47;;;18.50;99.90;;;;;;4983696;28;20054;-36
2022/06/16 07:28:47;;;;;;;3.60;0.70;;;18.60;99.90;;;;;;4986168;28;20168;-36
2022/06/16 07:31:13;;;;;;;1.48;0.50;;;18.70;99.90;;;;;;5029084;28;20056;-36
2022/06/16 07:33:38;;;;;;;3.42;0.70;;;18.70;99.90;;;;;;5015953;28;20046;-36
2022/06/16 07:36:05;;;;;;;3.00;0.88;;;18.80;99.90;;;;;;5019410;28;20067;-36
2022/06/16 07:38:31;;;;;;;4.90;0.90;;;18.90;99.90;;;;;;5002747;28;20054;-36
2022/06/16 07:43:41;;;;;;;3.75;0.95;;;18.80;99.90;;;;;;4996685;28;20107;-36
2022/06/16 07:46:07;;;;;;;3.13;1.13;;;18.80;99.90;;;;;;5004703;28;20129;-37
2022/06/16 07:48:33;;;;;;;3.97;1.30;;;18.80;99.90;;;;;;4981246;28;20061;-36
2022/06/16 07:50:58;;;;;;;4.13;1.15;;;18.80;99.90;;;;;;4992140;28;20630;-36
2022/06/16 07:53:24;;;;;;;3.88;1.10;;;18.90;99.90;;;;;;4988039;28;20076;-37
2022/06/16 07:55:49;;;;;;;4.00;1.20;;;18.90;99.90;;;;;;4991518;28;20096;-36
2022/06/16 07:58:15;;;;;;;2.17;1.10;;;19.00;99.90;;;;;;4975699;28;20050;-36
2022/06/16 08:00:41;;;;;;;4.40;1.20;;;18.90;99.90;;;;;;4990837;28;20060;-36
2022/06/16 08:03:07;;;;;;;3.28;1.50;;;18.90;99.90;;;;;;4988492;28;20053;-36
2022/06/16 08:05:33;;;;;;;3.10;1.27;;;19.00;99.90;;;;;;4991353;28;20100;-37
2022/06/16 08:07:59;;;;;;;4.47;1.27;;;19.00;99.90;;;;;;4972298;28;20053;-37
2022/06/16 08:10:27;;;;;;;3.80;1.27;;;19.00;99.90;;;;;;4981505;28;20058;-36
2022/06/16 08:12:54;;;;;;;3.33;1.20;;;19.00;99.90;;;;;;4987722;28;20045;-36
2022/06/16 08:15:20;;;;;;;3.53;1.55;;;19.00;99.90;;;;;;4989342;28;20061;-36
2022/06/16 08:17:49;;;;;;;3.85;1.50;;;19.00;99.90;;;;;;4973185;28;22046;-37
2022/06/16 08:20:15;;;;;;;2.72;1.30;;;19.00;99.90;;;;;;4973845;28;20481;-36
2022/06/16 08:22:42;;;;;;;5.07;1.30;;;19.00;99.90;;;;;;4987992;28;20094;-37
2022/06/16 08:25:12;;;;;;;3.97;0.90;;;19.00;99.90;;;;;;4971849;28;20065;-37
2022/06/16 08:27:39;;;;;;;2.78;0.98;;;19.00;99.90;;;;;;4971737;28;20084;-37
2022/06/16 08:30:09;;;;;;;3.10;1.05;;;19.10;99.90;;;;;;4990803;28;20085;-36
2022/06/16 08:32:35;;;;;;;3.30;1.05;;;19.10;99.90;;;;;;4986768;28;20144;-36
2022/06/16 08:35:02;;;;;;;1.88;0.80;;;19.10;99.90;;;;;;4991239;28;20550;-37
2022/06/16 08:37:28;;;;;;;4.45;1.10;;;19.10;99.90;;;;;;4970641;28;20069;-37
2022/06/16 08:39:53;;;;;;;4.63;1.08;;;19.10;99.90;;;;;;4969532;28;20178;-36
2022/06/16 08:42:28;;;;;;;5.10;1.02;;;19.10;99.90;;;;;;4967108;28;20148;-36
2022/06/16 08:45:09;;;;;;;2.25;1.02;;;19.20;99.90;;;;;;4987761;28;20062;-37
2022/06/16 08:47:41;;;;;;;3.10;1.00;;;19.20;99.90;;;;;;4971426;28;20046;-36
2022/06/16 08:50:29;;;;;;;4.25;1.35;;;19.30;99.90;;;;;;4988452;28;20061;-36
2022/06/16 08:53:36;;;;;;;2.10;1.30;;;19.30;99.90;;;;;;4987803;28;20053;-36
2022/06/16 08:56:06;;;;;;;3.35;1.10;;;19.30;99.90;;;;;;4988426;28;20053;-36
2022/06/16 08:58:35;;;;;;;3.05;1.50;;;19.30;99.90;;;;;;4975610;28;20052;-36
2022/06/16 09:01:28;;;;;;;2.30;1.20;;;19.30;99.90;;;;;;4989201;28;20057;-36
2022/06/16 09:04:00;;;;;;;3.17;1.10;;;19.30;99.90;;;;;;4989805;28;20050;-36
2022/06/16 09:06:44;;;;;;;2.78;1.42;;;19.30;99.90;;;;;;4977576;28;20623;-36
2022/06/16 09:12:33;;;;;;;5.80;1.67;;;19.40;99.90;;;;;;4989923;28;20058;-37
2022/06/16 09:15:14;;;;;;;2.40;1.20;;;19.40;99.90;;;;;;4990150;28;20092;-36
2022/06/16 09:17:58;;;;;;;4.22;2.40;;;19.50;99.90;;;;;;4974726;28;20046;-36
2022/06/16 09:20:48;;;;;;;4.63;1.80;;;19.50;99.90;;;;;;4988150;28;20058;-36
2022/06/16 09:23:29;;;;;;;4.07;1.63;;;19.50;99.90;;;;;;4988177;28;20417;-36
2022/06/16 09:26:10;;;;;;;2.33;1.40;;;19.50;99.90;;;;;;4989389;28;20486;-36
2022/06/16 09:29:06;;;;;;;2.55;1.30;;;19.40;99.90;;;;;;4981845;28;20169;-36
2022/06/16 09:31:56;;;;;;;6.60;1.98;;;19.40;99.90;;;;;;4971862;28;20054;-36
2022/06/16 09:34:43;;;;;;;4.47;1.70;;;19.40;99.90;;;;;;4971466;28;20065;-36
2022/06/16 09:37:38;;;;;;;3.08;1.50;;;19.40;99.90;;;;;;4974238;28;20077;-36
2022/06/16 09:40:27;;;;;;;5.43;1.30;;;19.30;99.90;;;;;;4973002;28;20065;-37
2022/06/16 09:42:59;;;;;;;2.97;1.20;;;19.40;99.90;;;;;;4985579;28;20053;-36
2022/06/16 09:45:27;;;;;;;1.55;1.05;;;19.40;99.90;;;;;;4969112;28;20583;-36
2022/06/16 09:48:31;;;;;;;6.00;1.65;;;19.30;99.90;;;;;;4970436;28;20065;-36
2022/06/16 09:51:15;;;;;;;3.70;1.45;;;19.40;99.90;;;;;;4986757;28;20057;-36
2022/06/16 09:53:43;;;;;;;6.47;1.70;;;19.40;99.90;;;;;;4966585;28;20119;-36
2022/06/16 09:56:16;;;;;;;3.80;1.77;;;19.40;99.90;;;;;;4979616;28;20075;-36
2022/06/16 09:58:59;;;;;;;2.67;1.67;;;19.40;99.90;;;;;;4980136;28;20053;-37
2022/06/16 10:01:30;;;;;;;4.10;1.80;;;19.30;99.90;;;;;;4986115;28;20089;-36
2022/06/16 10:04:03;;;;;;;3.25;1.90;;;19.40;99.90;;;;;;4986943;28;20056;-36
2022/06/16 10:06:34;;;;;;;4.43;1.98;;;19.40;99.90;;;;;;4974737;28;20152;-37
2022/06/16 10:09:45;;;;;;;2.40;1.70;;;19.40;99.90;;;;;;4983083;28;20058;-36
2022/06/16 10:12:23;;;;;;;4.32;1.90;;;19.40;99.90;;;;;;4987890;28;21097;-36
2022/06/16 10:14:55;;;;;;;3.42;1.52;;;19.40;99.90;;;;;;4988420;28;20050;-36
2022/06/16 10:17:23;;;;;;;3.33;1.80;;;19.40;99.90;;;;;;4972279;28;20049;-37
2022/06/16 10:19:51;;;;;;;3.95;1.80;;;19.50;99.90;;;;;;4987084;28;20083;-36
2022/06/16 10:22:20;;;;;;;3.60;1.88;;;19.50;99.90;;;;;;4987227;28;20050;-37
2022/06/16 10:25:06;;;;;;;5.93;2.30;;;19.60;99.90;;;;;;4986807;28;20057;-37
2022/06/16 10:27:39;;;;;;;5.85;2.33;;;19.60;99.90;;;;;;4972809;28;20045;-36
2022/06/16 10:30:07;;;;;;;4.78;2.10;;;19.50;99.90;;;;;;4988048;28;20084;-36
2022/06/16 10:32:43;;;;;;;4.15;2.08;;;19.60;99.90;;;;;;4987924;28;20178;-36
2022/06/16 10:35:21;;;;;;;4.60;2.42;;;19.70;99.90;;;;;;4969265;28;20064;-36
2022/06/16 10:37:51;;;;;;;4.55;2.10;;;19.70;99.90;;;;;;4972657;28;20494;-36
2022/06/16 10:40:23;;;;;;;4.90;1.92;;;19.60;99.90;;;;;;4988866;28;20727;-36
2022/06/16 10:42:52;;;;;;;4.30;2.75;;;19.70;99.90;;;;;;4988831;28;20052;-37
2022/06/16 10:45:37;;;;;;;4.78;2.42;;;19.70;99.90;;;;;;4989007;28;20061;-37
2022/06/16 10:48:11;;;;;;;4.13;2.35;;;19.70;99.90;;;;;;4970719;28;20874;-36
2022/06/16 10:50:41;;;;;;;5.07;1.98;;;19.70;99.90;;;;;;4988275;28;20050;-36
2022/06/16 10:53:18;;;;;;;3.63;1.80;;;19.80;99.90;;;;;;4969780;28;20123;-36
2022/06/16 10:55:46;;;;;;;4.95;2.40;;;19.80;99.90;;;;;;4988089;28;20062;-37
2022/06/16 10:58:23;;;;;;;2.88;1.98;;;19.90;99.90;;;;;;4973656;28;20053;-37
2022/06/16 11:01:20;;;;;;;5.18;2.22;;;19.90;99.90;;;;;;4988094;28;20045;-37
2022/06/16 11:03:52;;;;;;;4.00;1.92;;;20.00;99.90;;;;;;4985761;28;20531;-37
2022/06/16 11:06:23;;;;;;;4.20;2.45;;;20.10;99.90;;;;;;4979615;28;20615;-37
2022/06/16 11:08:56;;;;;;;3.97;2.50;;;20.10;99.90;;;;;;4982103;28;20790;-37
2022/06/16 11:11:40;;;;;;;5.05;2.40;;;20.20;99.90;;;;;;4988153;28;20506;-37
2022/06/16 11:14:12;;;;;;;3.42;2.53;;;20.20;99.90;;;;;;4986954;28;20062;-37
2022/06/16 11:16:47;;;;;;;5.15;2.10;;;20.20;99.90;;;;;;4974470;28;20140;-37
2022/06/16 11:19:25;;;;;;;4.75;1.92;;;20.30;99.90;;;;;;4987470;28;20128;-37
2022/06/16 11:21:51;;;;;;;6.47;2.10;;;20.40;99.90;;;;;;4987714;28;20062;-36
2022/06/16 11:24:28;;;;;;;4.20;2.30;;;20.40;99.90;;;;;;4989279;28;20052;-36
2022/06/16 11:27:08;;;;;;;3.90;1.85;;;20.50;99.90;;;;;;4971502;28;20038;-36
2022/06/16 11:29:35;;;;;;;3.83;2.10;;;20.60;99.90;;;;;;4984342;28;20096;-37
2022/06/16 11:32:17;;;;;;;3.78;2.00;;;20.60;99.90;;;;;;4987419;28;20050;-37
2022/06/16 11:34:44;;;;;;;5.18;1.95;;;20.70;99.90;;;;;;4969152;28;20457;-36
2022/06/16 11:37:11;;;;;;;3.78;1.90;;;20.70;99.90;;;;;;4971539;28;20042;-37
2022/06/16 11:40:00;;;;;;;2.97;2.15;;;20.90;99.90;;;;;;4987543;28;20046;-35
2022/06/16 11:42:34;;;;;;;3.90;1.67;;;20.90;99.90;;;;;;4977911;28;20104;-37
2022/06/16 11:45:28;;;;;;;5.68;2.00;;;21.00;99.90;;;;;;4984985;28;20437;-37
2022/06/16 11:48:04;;;;;;;3.13;2.00;;;21.10;99.90;;;;;;4969184;28;20596;-37
2022/06/16 11:50:49;;;;;;;5.07;2.13;;;21.20;99.90;;;;;;4987647;28;20061;-37
2022/06/16 11:53:32;;;;;;;4.43;1.75;;;21.30;99.90;;;;;;4986388;28;20914;-37
2022/06/16 11:56:07;;;;;;;5.25;2.10;;;21.40;99.90;;;;;;4984975;28;20054;-37
2022/06/16 11:58:57;;;;;;;3.30;1.98;;;21.50;99.90;;;;;;4953947;28;20148;-37
2022/06/16 12:01:38;;;;;;;3.92;2.03;;;21.60;99.90;;;;;;4984856;28;20050;-37
2022/06/16 12:04:10;;;;;;;3.72;1.55;;;21.70;99.90;;;;;;4969947;28;20068;-37
2022/06/16 12:07:13;;;;;;;2.40;1.50;;;21.70;99.90;;;;;;4954170;28;20049;-37
2022/06/16 12:09:49;;;;;;;4.15;1.77;;;21.80;99.90;;;;;;4986571;28;20104;-37
2022/06/16 12:12:37;;;;;;;4.70;1.80;;;22.00;99.90;;;;;;4985864;28;20069;-37
2022/06/16 12:15:25;;;;;;;5.85;2.28;;;22.10;99.90;;;;;;4985653;28;20042;-37
2022/06/16 12:18:14;;;;;;;3.00;1.80;;;22.20;99.90;;;;;;4967128;28;20575;-37
2022/06/16 12:21:17;;;;;;;4.38;1.70;;;22.20;99.90;;;;;;4971582;28;20405;-37
2022/06/16 12:23:55;;;;;;;4.95;2.30;;;22.20;99.90;;;;;;4985379;28;20480;-37
2022/06/16 12:26:26;;;;;;;6.07;1.80;;;22.30;99.90;;;;;;4960214;28;20049;-37
2022/06/16 12:29:21;;;;;;;3.33;1.58;;;22.30;99.90;;;;;;4970859;28;20048;-37
2022/06/16 12:32:15;;;;;;;2.25;1.52;;;22.40;99.90;;;;;;4977538;28;20057;-37
2022/06/16 12:34:59;;;;;;;3.30;1.80;;;22.50;99.90;;;;;;4971405;28;20053;-37
2022/06/16 12:37:30;;;;;;;1.92;1.35;;;22.60;99.90;;;;;;4953215;28;20442;-37
2022/06/16 12:40:12;;;;;;;3.97;1.67;;;22.60;99.90;;;;;;4969427;28;20057;-37
2022/06/16 12:42:52;;;;;;;3.47;2.10;;;22.70;99.90;;;;;;4967996;28;20075;-37
2022/06/16 12:45:30;;;;;;;2.55;1.60;;;22.80;99.90;;;;;;4954303;28;20136;-37
2022/06/16 12:48:02;;;;;;;2.83;1.63;;;22.90;99.90;;;;;;4938010;28;20046;-37
2022/06/16 12:50:44;;;;;;;2.88;1.60;;;23.00;99.90;;;;;;4969343;28;20151;-37
2022/06/16 12:53:13;;;;;;;;;;;23.10;99.90;;;;;;4966193;28;20045;-37
2022/06/16 12:55:51;;;;;;;4.20;1.90;;;23.20;99.90;;;;;;4965947;28;19936;-37
2022/06/16 12:58:28;;;;;;;6.63;1.60;;;23.20;99.90;;;;;;4918691;28;20049;-37
2022/06/16 13:00:58;;;;;;;3.40;1.35;;;23.40;99.90;;;;;;4966467;28;20058;-37
2022/06/16 13:03:43;;;;;;;4.67;1.60;;;23.40;99.90;;;;;;4972467;28;20093;-37
2022/06/16 13:06:11;;;;;;;4.22;1.50;;;23.50;99.90;;;;;;4964686;28;20293;-37
2022/06/16 13:08:40;;;;;;;2.50;1.73;;;23.50;99.90;;;;;;4961980;28;20459;-37
2022/06/16 13:11:15;;;;;;;3.35;1.70;;;23.60;99.80;;;;;;4968294;28;20568;-37
2022/06/16 13:13:47;;;;;;;4.10;1.55;;;23.70;97.80;;;;;;4969430;28;20585;-37
2022/06/16 13:16:18;;;;;;;2.97;1.35;;;23.70;98.30;;;;;;4962484;28;20050;-38
2022/06/16 13:18:50;;;;;;;4.05;1.50;;;23.70;96.80;;;;;;4965352;28;20128;-37
2022/06/16 13:21:50;;;;;;;2.17;1.15;;;23.80;97.20;;;;;;4969401;28;20049;-38
2022/06/16 13:24:23;;;;;;;2.00;1.15;;;23.80;92.70;;;;;;4953021;28;20184;-37
2022/06/16 13:27:11;;;;;;;2.80;1.23;;;23.90;95.30;;;;;;4951328;28;20178;-37
2022/06/16 13:29:40;;;;;;;1.48;1.23;;;23.90;95.60;;;;;;4948817;28;20050;-37
2022/06/16 13:32:21;;;;;;;3.13;1.42;;;24.00;95.80;;;;;;4971870;28;20501;-37
2022/06/16 13:34:52;;;;;;;;;;;23.90;92.30;;;;;;4989746;28;20050;-37
2022/06/16 13:37:35;;;;;;;2.03;1.42;;;24.10;94.60;;;;;;4972311;28;20391;-37